Stations météo

réclame
Mon MeteoGroup
St.Catherine`s Point, Grande-Bretagne (3866): Température de l'air & dewpoint: 20.08.2019 02:00:00 - 26.08.2019 02:00:00 (BST)St.Catherine`s Point, Grande-Bretagne (3866): Vitesse du vent: 20.08.2019 02:00:00 - 26.08.2019 02:00:00 (BST)St.Catherine`s Point, Grande-Bretagne (3866): Direction du vent: 20.08.2019 02:00:00 - 26.08.2019 02:00:00 (BST)St.Catherine`s Point, Grande-Bretagne (3866): reduced air pressure: 20.08.2019 02:00:00 - 26.08.2019 02:00:00 (BST)St.Catherine`s Point, Grande-Bretagne (3866): Quantités de précipitations: 20.08.2019 02:00:00 - 26.08.2019 02:00:00 (BST)
Date & Time tt [°C] td [°C] ff [km/h] ff [knt] dd ppp [hPa] rr [mm]
26.08.2019 02:00:00 - - - - - - -
26.08.2019 01:00:00 15,7 14,4 2 1 NNE 1018,9 0,0
26.08.2019 00:00:00 16,7 15,9 5 3 WNW 1019,4 0,0
25.08.2019 23:00:00 17,1 16,1 16 9 WNW 1019,0 0,0
25.08.2019 22:00:00 16,7 16,1 18 10 WNW 1019,1 0,0
25.08.2019 21:00:00 17,0 16,0 16 9 W 1018,9 0,0
25.08.2019 20:00:00 17,3 15,8 15 8 W 1018,3 0,0
25.08.2019 19:00:00 19,3 15,5 11 6 WNW 1018,1 0,0
25.08.2019 18:00:00 17,8 15,7 22 12 W 1018,5 0,0
25.08.2019 17:00:00 19,1 16,5 16 9 W 1018,1 0,0
25.08.2019 16:00:00 18,6 17,1 18 10 W 1018,4 0,0
25.08.2019 15:00:00 18,5 17,2 22 12 W 1018,3 0,0
25.08.2019 14:00:00 19,3 17,5 18 10 W 1018,2 0,0
25.08.2019 13:00:00 19,7 17,6 11 6 WSW 1018,0 0,0
25.08.2019 12:00:00 20,5 18,2 9 5 WSW 1017,7 0,0
25.08.2019 11:00:00 21,5 16,9 5 3 WSW 1017,6 0,0
25.08.2019 10:00:00 21,7 18,1 8 4 ESE 1017,4 0,0
25.08.2019 09:00:00 21,0 17,0 15 8 E 1017,0 0,0
25.08.2019 08:00:00 21,5 16,8 18 10 E 1016,3 0,0
25.08.2019 07:00:00 20,1 15,3 15 8 E 1016,0 0,0
25.08.2019 06:00:00 20,3 15,0 16 9 E 1015,6 0,0
25.08.2019 05:00:00 20,3 14,5 16 9 ENE 1015,6 0,0
25.08.2019 04:00:00 19,9 15,0 18 10 ENE 1015,8 0,0
25.08.2019 03:00:00 20,0 14,9 18 10 ENE 1015,8 0,0
25.08.2019 02:00:00 20,5 14,7 22 12 ENE 1015,9 0,0
25.08.2019 01:00:00 20,9 14,5 22 12 E 1016,0 0,0
25.08.2019 00:00:00 20,8 14,0 26 14 ENE 1016,1 0,0
24.08.2019 23:00:00 20,6 13,4 24 13 E 1016,1 0,0
24.08.2019 22:00:00 20,3 13,3 22 12 E 1016,2 0,0
24.08.2019 21:00:00 19,8 13,1 18 10 ENE 1016,3 0,0
24.08.2019 20:00:00 20,0 12,6 16 9 ENE 1016,3 0,0
24.08.2019 19:00:00 21,0 14,0 18 10 E 1016,5 0,0
24.08.2019 18:00:00 22,0 14,7 18 10 E 1016,7 0,0
24.08.2019 17:00:00 22,4 14,8 21 11 E 1016,8 0,0
24.08.2019 16:00:00 22,8 15,0 21 11 E 1017,5 0,0
24.08.2019 15:00:00 23,4 16,4 21 11 E 1017,9 0,0
24.08.2019 14:00:00 22,5 16,6 18 10 E 1018,3 0,0
24.08.2019 13:00:00 22,0 16,6 21 11 E 1018,3 0,0
24.08.2019 12:00:00 22,6 17,4 22 12 E 1018,6 0,0
24.08.2019 11:00:00 21,7 17,0 21 11 E 1018,9 0,0
24.08.2019 10:00:00 21,3 16,7 24 13 E 1018,9 0,0
24.08.2019 09:00:00 20,8 16,5 22 12 E 1018,7 0,0
24.08.2019 08:00:00 19,7 15,8 16 9 E 1018,7 0,0
24.08.2019 07:00:00 18,1 15,0 18 10 ENE 1018,7 0,0
24.08.2019 06:00:00 17,4 14,5 18 10 ENE 1018,8 0,0
24.08.2019 05:00:00 17,5 14,0 18 10 ENE 1019,1 0,0
24.08.2019 04:00:00 17,5 14,1 21 11 ENE 1019,5 0,0
24.08.2019 03:00:00 17,5 15,1 18 10 ENE 1019,9 0,0
24.08.2019 02:00:00 17,0 13,3 18 10 ENE 1020,3 0,0
24.08.2019 01:00:00 16,9 11,5 16 9 ENE 1020,7 0,0
24.08.2019 00:00:00 16,3 9,2 15 8 ENE 1020,9 0,0
23.08.2019 23:00:00 16,6 9,0 15 8 ENE 1021,1 0,0
23.08.2019 22:00:00 16,3 9,2 15 8 ENE 1021,3 0,0
23.08.2019 21:00:00 16,7 7,2 15 8 ENE 1021,6 0,0
23.08.2019 20:00:00 17,0 11,5 13 7 ENE 1021,8 0,0
23.08.2019 19:00:00 18,7 13,3 13 7 E 1022,0 0,0
23.08.2019 18:00:00 19,7 14,7 16 9 E 1022,4 0,0
23.08.2019 17:00:00 20,4 15,4 16 9 E 1023,0 0,0
23.08.2019 16:00:00 21,0 16,2 16 9 E 1023,4 0,0
23.08.2019 15:00:00 21,2 16,2 13 7 ESE 1023,9 0,0
23.08.2019 14:00:00 21,4 17,0 15 8 E 1024,1 0,0
23.08.2019 13:00:00 21,0 16,5 11 6 ESE 1024,6 0,0
23.08.2019 12:00:00 20,7 16,5 15 8 ESE 1024,8 0,0
23.08.2019 11:00:00 20,6 16,7 9 5 E 1025,0 0,0
23.08.2019 10:00:00 19,1 15,9 8 4 ESE 1025,2 0,0
23.08.2019 09:00:00 17,2 15,0 2 1 E 1025,3 0,0
23.08.2019 08:00:00 16,9 15,5 4 2 E 1025,3 0,0
23.08.2019 07:00:00 16,2 15,4 4 2 E 1025,0 0,0
23.08.2019 06:00:00 16,0 14,9 2 1 NW 1024,9 0,0
23.08.2019 05:00:00 16,5 15,6 9 5 WSW 1025,1 0,0
23.08.2019 04:00:00 15,6 15,0 5 3 WNW 1025,3 0,0
23.08.2019 03:00:00 15,3 14,3 5 3 NW 1025,3 0,0
23.08.2019 02:00:00 15,2 14,0 8 4 NW 1025,4 0,0
23.08.2019 01:00:00 16,0 14,3 8 4 NW 1025,5 0,0
23.08.2019 00:00:00 16,6 14,8 13 7 WNW 1025,6 0,0
22.08.2019 23:00:00 16,8 14,3 18 10 WNW 1025,7 0,0
22.08.2019 22:00:00 16,8 14,2 18 10 W 1025,7 0,0
22.08.2019 21:00:00 16,7 13,7 13 7 W 1025,8 0,0
22.08.2019 20:00:00 17,0 13,0 11 6 W 1025,4 0,0
22.08.2019 19:00:00 17,8 12,7 15 8 W 1025,4 0,0
22.08.2019 18:00:00 18,1 14,4 21 11 W 1025,4 0,0
22.08.2019 17:00:00 18,4 14,6 21 11 W 1025,7 0,0
22.08.2019 16:00:00 18,0 14,2 22 12 WSW 1025,8 0,0
22.08.2019 15:00:00 18,8 14,4 21 11 W 1026,0 0,0
22.08.2019 14:00:00 18,5 13,6 21 11 W 1026,1 0,0
22.08.2019 13:00:00 17,8 12,4 21 11 WSW 1026,2 0,0
22.08.2019 12:00:00 18,1 12,8 21 11 W 1026,2 0,0
22.08.2019 11:00:00 18,2 13,1 18 10 W 1026,3 0,0
22.08.2019 10:00:00 17,3 12,7 21 11 W 1026,1 0,0
22.08.2019 09:00:00 17,1 12,3 21 11 W 1025,7 0,0
22.08.2019 08:00:00 16,4 12,0 21 11 W 1025,6 0,0
22.08.2019 07:00:00 15,8 11,6 18 10 W 1025,2 0,0
22.08.2019 06:00:00 15,7 12,1 21 11 W 1025,0 0,0
22.08.2019 05:00:00 15,5 11,9 18 10 W 1024,9 0,0
22.08.2019 04:00:00 15,6 12,1 18 10 W 1024,9 0,0
22.08.2019 03:00:00 15,6 12,6 21 11 W 1025,2 0,0
22.08.2019 02:00:00 15,8 12,7 21 11 W 1025,3 0,0
22.08.2019 01:00:00 16,0 12,4 18 10 WSW 1025,5 0,0
22.08.2019 00:00:00 16,1 12,4 18 10 WSW 1025,8 0,0
21.08.2019 23:00:00 16,1 12,1 15 8 WSW 1026,0 0,0
21.08.2019 22:00:00 16,0 11,6 13 7 WSW 1025,9 0,0
21.08.2019 21:00:00 16,1 12,3 15 8 WSW 1025,8 0,0
21.08.2019 20:00:00 16,2 12,4 15 8 WSW 1025,8 0,0
21.08.2019 19:00:00 16,7 10,9 15 8 WSW 1025,9 0,0
21.08.2019 18:00:00 17,2 11,5 13 7 WSW 1026,1 0,0
21.08.2019 17:00:00 17,6 13,1 15 8 WSW 1026,3 0,0
21.08.2019 16:00:00 17,9 13,6 16 9 WSW 1026,5 0,0
21.08.2019 15:00:00 18,3 13,6 18 10 W 1027,0 0,0
21.08.2019 14:00:00 17,9 13,5 16 9 WSW 1027,3 0,0
21.08.2019 13:00:00 17,8 14,0 13 7 SW 1027,4 0,0
21.08.2019 12:00:00 18,1 13,9 9 5 SSW 1027,7 0,0
21.08.2019 11:00:00 17,9 12,7 8 4 SE 1027,8 0,0
21.08.2019 10:00:00 18,5 13,0 5 3 ESE 1027,8 0,0
21.08.2019 09:00:00 17,2 11,4 4 2 ESE 1027,8 0,0
21.08.2019 08:00:00 16,4 12,2 5 3 NNE 1027,7 0,0
21.08.2019 07:00:00 14,4 10,4 13 7 N 1027,4 0,0
21.08.2019 06:00:00 14,6 9,8 9 5 N 1027,2 0,0
21.08.2019 05:00:00 15,0 10,5 11 6 NNW 1027,0 0,0
21.08.2019 04:00:00 14,9 11,4 9 5 NNW 1026,9 0,0
21.08.2019 03:00:00 14,9 13,1 8 4 NNW 1026,9 0,0
21.08.2019 02:00:00 15,2 13,2 8 4 NNW 1026,9 0,0
21.08.2019 01:00:00 15,0 13,2 8 4 NW 1027,0 0,0
21.08.2019 00:00:00 16,5 13,7 13 7 W 1027,1 0,0
20.08.2019 23:00:00 16,4 13,4 15 8 W 1027,2 0,0
20.08.2019 22:00:00 16,6 13,3 15 8 W 1027,0 0,0
20.08.2019 21:00:00 16,7 12,4 18 10 W 1026,6 0,0
20.08.2019 20:00:00 16,8 12,7 22 12 W 1026,3 0,0
20.08.2019 19:00:00 17,1 12,6 26 14 W 1025,8 0,0
20.08.2019 18:00:00 17,4 12,7 28 15 W 1025,4 0,0
20.08.2019 17:00:00 17,9 12,0 31 17 W 1025,0 0,0
20.08.2019 16:00:00 17,6 11,5 29 16 W 1024,9 0,0
20.08.2019 15:00:00 17,9 12,4 28 15 W 1024,7 0,0
20.08.2019 14:00:00 18,0 11,7 29 16 W 1024,4 0,0
20.08.2019 13:00:00 17,7 11,1 28 15 W 1024,3 0,0
20.08.2019 12:00:00 17,7 11,2 22 12 W 1024,2 0,0
20.08.2019 11:00:00 17,0 11,0 18 10 W 1024,0 0,0
20.08.2019 10:00:00 16,4 12,3 15 8 W 1023,6 0,0
20.08.2019 09:00:00 15,6 12,2 11 6 WNW 1023,1 0,0
20.08.2019 08:00:00 15,1 11,9 13 7 WNW 1022,3 0,0
20.08.2019 07:00:00 15,4 11,8 24 13 W 1021,4 0,0
20.08.2019 06:00:00 15,5 11,1 24 13 W 1020,8 0,0
20.08.2019 05:00:00 15,3 11,0 28 15 W 1020,5 0,0
20.08.2019 04:00:00 15,3 10,7 26 14 W 1020,3 0,0
20.08.2019 03:00:00 15,4 11,1 24 13 W 1020,1 0,0
20.08.2019 02:00:00 15,6 10,3 26 14 W 1020,1 0,0

tt = Température de l'air
td = dewpoint
ff = Vitesse du vent
dd = Direction du vent
ppp = reduced air pressure
rr = Quantités de précipitations

stations d'obs. à proximité